Bath, North Carolina
Current Conditions -  °F | °C
As of 8:35 PM on Thursday 18 Dec 2014 (Local Time) from KOCW Reporting Station
Clear Clear  
Wind Chill: 36°   Ceiling: Unl
Heat Index: 36°   Visibility: 10mi
Dew Point: 33°   Wind: 0mph
Humidity: 87%   Direction: NA
Pressure: 30.11"   Gusts: NA
Location:  35.48°N, 76.81°W
Report Text: KOCW 190135Z AUTO 00000KT 10SM CLR 02/00 A3011 RMK AO2 T00220003
Loading
Personal Weather Stations






























Interactive Weather Map New forecast layout! Learn more

10-Day Weather Forecast

Advertisements
Track Severe Weather on mobile